Terminal Aerodrome Forecast
Issued by NWS Mt. Holly, NJ

Current Version | Previous Version | Text Only | Print | Product List | Glossary On
Versions: 1 2 3 4 5 6 7 8 9 10 11 12 13 14 15 16 17 18 19 20 21 22 23 24 25 26 27 28 29 30 31 32 33 34 35
000
FTUS41 KPHI 281857 AAB
TAFPHL
TAF AMD
KPHL 281857Z 2819/2924 27015KT 1/2SM +TSRA OVC015CB
     FM281930 22008KT 3SM -TSRA BR OVC025CB
     FM282200 19006KT P6SM BKN090 OVC250
      TEMPO 2822/2824 4SM TSRA BKN035CB
     FM290000 15004KT P6SM OVC050
      TEMPO 2900/2904 4SM SHRA BR OVC035
     FM290400 10005KT 4SM -SHRA BR OVC035
     FM290600 14006KT 2SM +SHRA BR OVC020
     FM291300 34009KT P6SM VCSH OVC025
      TEMPO 2913/2915 4SM -SHRA
     FM291500 34011G18KT P6SM BKN050
     FM291800 34012G18KT P6SM SCT050=

USA.gov is the U.S. government's official web portal to all federal, state and local government web resources and services.